sensor_id;sensor_type;location;lat;lon;timestamp;temperature;humidity
22734;DHT22;11534;51.994;5.692;2023-04-25T00:00:24;7.40;99.90
22734;DHT22;11534;51.994;5.692;2023-04-25T00:02:50;7.40;99.90
22734;DHT22;11534;51.994;5.692;2023-04-25T00:05:16;7.30;99.90
22734;DHT22;11534;51.994;5.692;2023-04-25T00:07:41;7.30;99.90
22734;DHT22;11534;51.994;5.692;2023-04-25T00:10:09;7.20;99.90
22734;DHT22;11534;51.994;5.692;2023-04-25T00:12:36;7.20;99.90
22734;DHT22;11534;51.994;5.692;2023-04-25T00:15:02;7.20;99.90
22734;DHT22;11534;51.994;5.692;2023-04-25T00:17:28;7.10;99.90
22734;DHT22;11534;51.994;5.692;2023-04-25T00:19:54;7.10;99.90
22734;DHT22;11534;51.994;5.692;2023-04-25T00:22:20;7.10;99.90
22734;DHT22;11534;51.994;5.692;2023-04-25T00:24:46;7.10;99.90
22734;DHT22;11534;51.994;5.692;2023-04-25T00:27:11;7.10;99.90
22734;DHT22;11534;51.994;5.692;2023-04-25T00:29:37;7.10;99.90
22734;DHT22;11534;51.994;5.692;2023-04-25T00:32:03;7.00;99.90
22734;DHT22;11534;51.994;5.692;2023-04-25T00:34:28;7.00;99.90
22734;DHT22;11534;51.994;5.692;2023-04-25T00:36:54;7.00;99.90
22734;DHT22;11534;51.994;5.692;2023-04-25T00:39:20;7.00;99.90
22734;DHT22;11534;51.994;5.692;2023-04-25T00:41:46;7.00;99.90
22734;DHT22;11534;51.994;5.692;2023-04-25T00:44:12;7.00;99.90
22734;DHT22;11534;51.994;5.692;2023-04-25T00:46:39;6.90;99.90
22734;DHT22;11534;51.994;5.692;2023-04-25T00:49:05;6.90;99.90
22734;DHT22;11534;51.994;5.692;2023-04-25T00:51:31;6.90;99.90
22734;DHT22;11534;51.994;5.692;2023-04-25T00:53:58;6.70;99.90
22734;DHT22;11534;51.994;5.692;2023-04-25T00:56:25;6.70;99.90
22734;DHT22;11534;51.994;5.692;2023-04-25T00:58:53;6.70;99.90
22734;DHT22;11534;51.994;5.692;2023-04-25T01:01:20;6.70;99.90
22734;DHT22;11534;51.994;5.692;2023-04-25T01:03:46;6.60;99.90
22734;DHT22;11534;51.994;5.692;2023-04-25T01:06:12;6.60;99.90
22734;DHT22;11534;51.994;5.692;2023-04-25T01:08:39;6.70;99.90
22734;DHT22;11534;51.994;5.692;2023-04-25T01:11:05;6.60;99.90
22734;DHT22;11534;51.994;5.692;2023-04-25T01:13:31;6.60;99.90
22734;DHT22;11534;51.994;5.692;2023-04-25T01:15:58;6.60;99.90
22734;DHT22;11534;51.994;5.692;2023-04-25T01:18:24;6.60;99.90
22734;DHT22;11534;51.994;5.692;2023-04-25T01:20:51;6.70;99.90
22734;DHT22;11534;51.994;5.692;2023-04-25T01:23:18;6.70;99.90
22734;DHT22;11534;51.994;5.692;2023-04-25T01:25:45;6.70;99.90
22734;DHT22;11534;51.994;5.692;2023-04-25T01:28:11;6.70;99.90
22734;DHT22;11534;51.994;5.692;2023-04-25T01:30:37;6.70;99.90
22734;DHT22;11534;51.994;5.692;2023-04-25T01:33:04;6.70;99.90
22734;DHT22;11534;51.994;5.692;2023-04-25T01:35:31;6.70;99.90
22734;DHT22;11534;51.994;5.692;2023-04-25T01:37:57;6.80;99.90
22734;DHT22;11534;51.994;5.692;2023-04-25T01:40:24;6.80;99.90
22734;DHT22;11534;51.994;5.692;2023-04-25T01:42:50;6.80;99.90
22734;DHT22;11534;51.994;5.692;2023-04-25T01:45:17;6.90;99.90
22734;DHT22;11534;51.994;5.692;2023-04-25T01:47:43;6.90;99.90
22734;DHT22;11534;51.994;5.692;2023-04-25T01:50:12;6.90;99.90
22734;DHT22;11534;51.994;5.692;2023-04-25T01:52:38;6.80;99.90
22734;DHT22;11534;51.994;5.692;2023-04-25T01:55:04;6.80;99.90
22734;DHT22;11534;51.994;5.692;2023-04-25T01:57:30;6.80;99.90
22734;DHT22;11534;51.994;5.692;2023-04-25T01:59:59;6.80;99.90
22734;DHT22;11534;51.994;5.692;2023-04-25T02:02:25;6.80;99.90
22734;DHT22;11534;51.994;5.692;2023-04-25T02:04:51;6.80;99.90
22734;DHT22;11534;51.994;5.692;2023-04-25T02:07:17;6.80;99.90
22734;DHT22;11534;51.994;5.692;2023-04-25T02:09:42;6.80;99.90
22734;DHT22;11534;51.994;5.692;2023-04-25T02:12:09;6.70;99.90
22734;DHT22;11534;51.994;5.692;2023-04-25T02:14:35;6.80;99.90
22734;DHT22;11534;51.994;5.692;2023-04-25T02:17:01;6.70;99.90
22734;DHT22;11534;51.994;5.692;2023-04-25T02:19:26;6.70;99.90
22734;DHT22;11534;51.994;5.692;2023-04-25T02:21:52;6.70;99.90
22734;DHT22;11534;51.994;5.692;2023-04-25T02:24:17;6.60;99.90
22734;DHT22;11534;51.994;5.692;2023-04-25T02:26:43;6.60;99.90
22734;DHT22;11534;51.994;5.692;2023-04-25T02:29:09;6.60;99.90
22734;DHT22;11534;51.994;5.692;2023-04-25T02:31:35;6.50;99.90
22734;DHT22;11534;51.994;5.692;2023-04-25T02:34:01;6.50;99.90
22734;DHT22;11534;51.994;5.692;2023-04-25T02:36:27;6.50;99.90
22734;DHT22;11534;51.994;5.692;2023-04-25T02:38:53;6.50;99.90
22734;DHT22;11534;51.994;5.692;2023-04-25T02:41:18;6.50;99.90
22734;DHT22;11534;51.994;5.692;2023-04-25T02:43:44;6.40;99.90
22734;DHT22;11534;51.994;5.692;2023-04-25T02:46:10;6.40;99.90
22734;DHT22;11534;51.994;5.692;2023-04-25T02:48:35;6.40;99.90
22734;DHT22;11534;51.994;5.692;2023-04-25T02:51:01;6.40;99.90
22734;DHT22;11534;51.994;5.692;2023-04-25T02:53:26;6.20;99.90
22734;DHT22;11534;51.994;5.692;2023-04-25T02:55:52;6.20;99.90
22734;DHT22;11534;51.994;5.692;2023-04-25T02:58:18;6.10;99.90
22734;DHT22;11534;51.994;5.692;2023-04-25T03:00:44;6.10;99.90
22734;DHT22;11534;51.994;5.692;2023-04-25T03:03:09;6.10;99.90
22734;DHT22;11534;51.994;5.692;2023-04-25T03:05:35;6.00;99.90
22734;DHT22;11534;51.994;5.692;2023-04-25T03:08:00;6.00;99.90
22734;DHT22;11534;51.994;5.692;2023-04-25T03:10:26;5.90;99.90
22734;DHT22;11534;51.994;5.692;2023-04-25T03:12:52;5.90;99.90
22734;DHT22;11534;51.994;5.692;2023-04-25T03:15:17;5.90;99.90
22734;DHT22;11534;51.994;5.692;2023-04-25T03:17:44;5.90;99.90
22734;DHT22;11534;51.994;5.692;2023-04-25T03:20:10;5.80;99.90
22734;DHT22;11534;51.994;5.692;2023-04-25T03:22:36;5.80;99.90
22734;DHT22;11534;51.994;5.692;2023-04-25T03:25:01;5.80;99.90
22734;DHT22;11534;51.994;5.692;2023-04-25T03:27:28;5.80;99.90
22734;DHT22;11534;51.994;5.692;2023-04-25T03:29:53;5.90;99.90
22734;DHT22;11534;51.994;5.692;2023-04-25T03:32:19;5.80;99.90
22734;DHT22;11534;51.994;5.692;2023-04-25T03:34:45;5.80;99.90
22734;DHT22;11534;51.994;5.692;2023-04-25T03:37:10;5.80;99.90
22734;DHT22;11534;51.994;5.692;2023-04-25T03:39:36;5.80;99.90
22734;DHT22;11534;51.994;5.692;2023-04-25T03:42:03;5.90;99.90
22734;DHT22;11534;51.994;5.692;2023-04-25T03:44:28;5.90;99.90
22734;DHT22;11534;51.994;5.692;2023-04-25T03:46:54;5.90;99.90
22734;DHT22;11534;51.994;5.692;2023-04-25T03:49:19;5.90;99.90
22734;DHT22;11534;51.994;5.692;2023-04-25T03:51:46;5.90;99.90
22734;DHT22;11534;51.994;5.692;2023-04-25T03:54:11;5.90;99.90
22734;DHT22;11534;51.994;5.692;2023-04-25T03:56:37;5.80;99.90
22734;DHT22;11534;51.994;5.692;2023-04-25T03:59:02;5.80;99.90
22734;DHT22;11534;51.994;5.692;2023-04-25T04:01:28;5.80;99.90
22734;DHT22;11534;51.994;5.692;2023-04-25T04:03:54;5.80;99.90
22734;DHT22;11534;51.994;5.692;2023-04-25T04:06:20;5.80;99.90
22734;DHT22;11534;51.994;5.692;2023-04-25T04:08:46;5.70;99.90
22734;DHT22;11534;51.994;5.692;2023-04-25T04:11:12;5.70;99.90
22734;DHT22;11534;51.994;5.692;2023-04-25T04:13:37;5.70;99.90
22734;DHT22;11534;51.994;5.692;2023-04-25T04:16:03;5.70;99.90
22734;DHT22;11534;51.994;5.692;2023-04-25T04:18:30;5.70;99.90
22734;DHT22;11534;51.994;5.692;2023-04-25T04:20:55;5.70;99.90
22734;DHT22;11534;51.994;5.692;2023-04-25T04:23:23;5.70;99.90
22734;DHT22;11534;51.994;5.692;2023-04-25T04:25:49;5.60;99.90
22734;DHT22;11534;51.994;5.692;2023-04-25T04:28:15;5.70;99.90
22734;DHT22;11534;51.994;5.692;2023-04-25T04:30:41;5.60;99.90
22734;DHT22;11534;51.994;5.692;2023-04-25T04:33:08;5.60;99.90
22734;DHT22;11534;51.994;5.692;2023-04-25T04:35:34;5.70;99.90
22734;DHT22;11534;51.994;5.692;2023-04-25T04:38:00;5.70;99.90
22734;DHT22;11534;51.994;5.692;2023-04-25T04:40:25;5.70;99.90
22734;DHT22;11534;51.994;5.692;2023-04-25T04:42:51;5.80;99.90
22734;DHT22;11534;51.994;5.692;2023-04-25T04:45:18;5.80;99.90
22734;DHT22;11534;51.994;5.692;2023-04-25T04:47:44;5.70;99.90
22734;DHT22;11534;51.994;5.692;2023-04-25T04:50:11;5.80;99.90
22734;DHT22;11534;51.994;5.692;2023-04-25T04:52:37;5.70;99.90
22734;DHT22;11534;51.994;5.692;2023-04-25T04:55:04;5.70;99.90
22734;DHT22;11534;51.994;5.692;2023-04-25T04:57:31;5.80;99.90
22734;DHT22;11534;51.994;5.692;2023-04-25T04:59:58;5.80;99.90
22734;DHT22;11534;51.994;5.692;2023-04-25T05:02:24;5.90;99.90
22734;DHT22;11534;51.994;5.692;2023-04-25T05:04:51;5.90;99.90
22734;DHT22;11534;51.994;5.692;2023-04-25T05:07:17;5.90;99.90
22734;DHT22;11534;51.994;5.692;2023-04-25T05:09:43;6.00;99.90
22734;DHT22;11534;51.994;5.692;2023-04-25T05:12:09;6.00;99.90
22734;DHT22;11534;51.994;5.692;2023-04-25T05:14:34;6.00;99.90
22734;DHT22;11534;51.994;5.692;2023-04-25T05:17:00;6.10;99.90
22734;DHT22;11534;51.994;5.692;2023-04-25T05:19:26;6.10;99.90
22734;DHT22;11534;51.994;5.692;2023-04-25T05:21:52;6.20;99.90
22734;DHT22;11534;51.994;5.692;2023-04-25T05:24:18;6.30;99.90
22734;DHT22;11534;51.994;5.692;2023-04-25T05:26:43;6.30;99.90
22734;DHT22;11534;51.994;5.692;2023-04-25T05:29:09;6.30;99.90
22734;DHT22;11534;51.994;5.692;2023-04-25T05:31:35;6.40;99.90
22734;DHT22;11534;51.994;5.692;2023-04-25T05:34:02;6.40;99.90
22734;DHT22;11534;51.994;5.692;2023-04-25T05:36:27;6.40;99.90
22734;DHT22;11534;51.994;5.692;2023-04-25T05:38:53;6.50;99.90
22734;DHT22;11534;51.994;5.692;2023-04-25T05:41:19;6.50;99.90
22734;DHT22;11534;51.994;5.692;2023-04-25T05:43:45;6.60;99.90
22734;DHT22;11534;51.994;5.692;2023-04-25T05:46:12;6.60;99.90
22734;DHT22;11534;51.994;5.692;2023-04-25T05:48:39;6.60;99.90
22734;DHT22;11534;51.994;5.692;2023-04-25T05:51:04;6.70;99.90
22734;DHT22;11534;51.994;5.692;2023-04-25T05:53:30;6.70;99.90
22734;DHT22;11534;51.994;5.692;2023-04-25T05:55:56;6.70;99.90
22734;DHT22;11534;51.994;5.692;2023-04-25T05:58:22;6.70;99.90
22734;DHT22;11534;51.994;5.692;2023-04-25T06:00:47;6.80;99.90
22734;DHT22;11534;51.994;5.692;2023-04-25T06:03:13;6.80;99.90
22734;DHT22;11534;51.994;5.692;2023-04-25T06:05:43;6.80;99.90
22734;DHT22;11534;51.994;5.692;2023-04-25T06:08:09;6.90;99.90
22734;DHT22;11534;51.994;5.692;2023-04-25T06:10:36;6.90;99.90
22734;DHT22;11534;51.994;5.692;2023-04-25T06:13:02;7.10;99.90
22734;DHT22;11534;51.994;5.692;2023-04-25T06:15:28;7.10;99.90
22734;DHT22;11534;51.994;5.692;2023-04-25T06:17:54;7.10;99.90
22734;DHT22;11534;51.994;5.692;2023-04-25T06:20:20;7.10;99.90
22734;DHT22;11534;51.994;5.692;2023-04-25T06:22:49;7.10;99.90
22734;DHT22;11534;51.994;5.692;2023-04-25T06:25:15;7.20;99.90
22734;DHT22;11534;51.994;5.692;2023-04-25T06:27:40;7.10;99.90
22734;DHT22;11534;51.994;5.692;2023-04-25T06:30:07;7.20;99.90
22734;DHT22;11534;51.994;5.692;2023-04-25T06:32:32;7.30;99.90
22734;DHT22;11534;51.994;5.692;2023-04-25T06:34:59;7.30;99.90
22734;DHT22;11534;51.994;5.692;2023-04-25T06:37:25;7.40;99.90
22734;DHT22;11534;51.994;5.692;2023-04-25T06:39:51;7.50;99.90
22734;DHT22;11534;51.994;5.692;2023-04-25T06:42:16;7.50;99.90
22734;DHT22;11534;51.994;5.692;2023-04-25T06:44:42;7.40;99.90
22734;DHT22;11534;51.994;5.692;2023-04-25T06:47:08;7.50;99.90
22734;DHT22;11534;51.994;5.692;2023-04-25T06:49:33;7.60;99.90
22734;DHT22;11534;51.994;5.692;2023-04-25T06:51:59;7.60;99.90
22734;DHT22;11534;51.994;5.692;2023-04-25T06:54:25;7.60;99.90
22734;DHT22;11534;51.994;5.692;2023-04-25T06:56:52;7.60;99.90
22734;DHT22;11534;51.994;5.692;2023-04-25T06:59:18;7.70;99.90
22734;DHT22;11534;51.994;5.692;2023-04-25T07:01:44;7.70;99.90
22734;DHT22;11534;51.994;5.692;2023-04-25T07:04:10;7.70;99.90
22734;DHT22;11534;51.994;5.692;2023-04-25T07:06:36;7.70;99.90
22734;DHT22;11534;51.994;5.692;2023-04-25T07:09:10;7.80;99.90
22734;DHT22;11534;51.994;5.692;2023-04-25T07:11:36;7.90;99.90
22734;DHT22;11534;51.994;5.692;2023-04-25T07:14:03;8.00;99.90
22734;DHT22;11534;51.994;5.692;2023-04-25T07:16:28;8.00;99.90
22734;DHT22;11534;51.994;5.692;2023-04-25T07:18:54;8.10;99.90
22734;DHT22;11534;51.994;5.692;2023-04-25T07:21:20;8.20;99.90
22734;DHT22;11534;51.994;5.692;2023-04-25T07:23:45;8.20;99.90
22734;DHT22;11534;51.994;5.692;2023-04-25T07:26:12;8.30;99.90
22734;DHT22;11534;51.994;5.692;2023-04-25T07:28:37;8.20;99.90
22734;DHT22;11534;51.994;5.692;2023-04-25T07:31:03;8.30;99.90
22734;DHT22;11534;51.994;5.692;2023-04-25T07:33:29;8.30;99.90
22734;DHT22;11534;51.994;5.692;2023-04-25T07:35:55;8.40;99.90
22734;DHT22;11534;51.994;5.692;2023-04-25T07:38:21;8.40;99.90
22734;DHT22;11534;51.994;5.692;2023-04-25T07:40:50;8.50;99.90
22734;DHT22;11534;51.994;5.692;2023-04-25T07:43:15;8.50;99.90
22734;DHT22;11534;51.994;5.692;2023-04-25T07:45:46;8.70;99.90
22734;DHT22;11534;51.994;5.692;2023-04-25T07:48:16;8.80;99.90
22734;DHT22;11534;51.994;5.692;2023-04-25T07:50:42;8.90;99.90
22734;DHT22;11534;51.994;5.692;2023-04-25T07:53:07;9.00;99.90
22734;DHT22;11534;51.994;5.692;2023-04-25T07:55:34;9.00;99.90
22734;DHT22;11534;51.994;5.692;2023-04-25T07:57:59;8.90;99.90
22734;DHT22;11534;51.994;5.692;2023-04-25T08:00:25;8.80;99.90
22734;DHT22;11534;51.994;5.692;2023-04-25T08:02:50;8.70;99.90
22734;DHT22;11534;51.994;5.692;2023-04-25T08:05:16;8.60;99.90
22734;DHT22;11534;51.994;5.692;2023-04-25T08:07:42;8.70;99.90
22734;DHT22;11534;51.994;5.692;2023-04-25T08:10:09;8.70;99.90
22734;DHT22;11534;51.994;5.692;2023-04-25T08:12:35;8.80;99.90
22734;DHT22;11534;51.994;5.692;2023-04-25T08:15:00;8.90;99.90
22734;DHT22;11534;51.994;5.692;2023-04-25T08:17:26;9.10;99.90
22734;DHT22;11534;51.994;5.692;2023-04-25T08:19:52;9.20;99.90
22734;DHT22;11534;51.994;5.692;2023-04-25T08:22:18;9.20;99.90
22734;DHT22;11534;51.994;5.692;2023-04-25T08:24:44;9.10;99.90
22734;DHT22;11534;51.994;5.692;2023-04-25T08:27:09;9.00;99.90
22734;DHT22;11534;51.994;5.692;2023-04-25T08:29:36;8.90;99.90
22734;DHT22;11534;51.994;5.692;2023-04-25T08:32:02;8.90;99.90
22734;DHT22;11534;51.994;5.692;2023-04-25T08:34:28;8.90;99.90
22734;DHT22;11534;51.994;5.692;2023-04-25T08:36:53;8.90;99.90
22734;DHT22;11534;51.994;5.692;2023-04-25T08:39:19;8.90;99.90
22734;DHT22;11534;51.994;5.692;2023-04-25T08:41:46;8.80;99.90
22734;DHT22;11534;51.994;5.692;2023-04-25T08:44:12;8.80;99.90
22734;DHT22;11534;51.994;5.692;2023-04-25T08:46:41;9.00;99.90
22734;DHT22;11534;51.994;5.692;2023-04-25T08:49:07;9.20;99.90
22734;DHT22;11534;51.994;5.692;2023-04-25T08:51:36;9.20;99.90
22734;DHT22;11534;51.994;5.692;2023-04-25T08:54:10;9.20;99.90
22734;DHT22;11534;51.994;5.692;2023-04-25T08:56:41;9.20;99.90
22734;DHT22;11534;51.994;5.692;2023-04-25T08:59:10;9.40;99.90
22734;DHT22;11534;51.994;5.692;2023-04-25T09:01:36;9.60;99.90
22734;DHT22;11534;51.994;5.692;2023-04-25T09:04:02;9.50;99.90
22734;DHT22;11534;51.994;5.692;2023-04-25T09:06:29;9.40;99.90
22734;DHT22;11534;51.994;5.692;2023-04-25T09:09:05;9.00;99.90
22734;DHT22;11534;51.994;5.692;2023-04-25T09:11:32;8.70;99.90
22734;DHT22;11534;51.994;5.692;2023-04-25T09:14:20;8.50;99.90
22734;DHT22;11534;51.994;5.692;2023-04-25T09:19:29;8.40;99.90
22734;DHT22;11534;51.994;5.692;2023-04-25T09:21:59;8.40;99.90
22734;DHT22;11534;51.994;5.692;2023-04-25T09:24:43;8.40;99.90
22734;DHT22;11534;51.994;5.692;2023-04-25T09:27:11;8.40;99.90
22734;DHT22;11534;51.994;5.692;2023-04-25T09:29:40;8.40;99.90
22734;DHT22;11534;51.994;5.692;2023-04-25T09:32:11;8.50;99.90
22734;DHT22;11534;51.994;5.692;2023-04-25T09:34:45;8.70;99.90
22734;DHT22;11534;51.994;5.692;2023-04-25T09:37:17;9.00;99.90
22734;DHT22;11534;51.994;5.692;2023-04-25T09:39:45;9.20;99.90
22734;DHT22;11534;51.994;5.692;2023-04-25T09:42:12;9.40;99.90
22734;DHT22;11534;51.994;5.692;2023-04-25T09:44:42;9.60;99.90
22734;DHT22;11534;51.994;5.692;2023-04-25T09:47:14;9.60;99.90
22734;DHT22;11534;51.994;5.692;2023-04-25T09:49:42;9.80;99.90
22734;DHT22;11534;51.994;5.692;2023-04-25T09:52:08;9.90;99.90
22734;DHT22;11534;51.994;5.692;2023-04-25T09:54:34;10.10;99.90
22734;DHT22;11534;51.994;5.692;2023-04-25T09:57:12;10.10;99.90
22734;DHT22;11534;51.994;5.692;2023-04-25T09:59:51;10.30;99.90
22734;DHT22;11534;51.994;5.692;2023-04-25T10:02:27;10.60;99.90
22734;DHT22;11534;51.994;5.692;2023-04-25T10:04:54;10.80;99.90
22734;DHT22;11534;51.994;5.692;2023-04-25T10:07:22;10.80;99.90
22734;DHT22;11534;51.994;5.692;2023-04-25T10:09:59;10.80;99.90
22734;DHT22;11534;51.994;5.692;2023-04-25T10:12:26;10.90;99.90
22734;DHT22;11534;51.994;5.692;2023-04-25T10:14:52;10.80;99.90
22734;DHT22;11534;51.994;5.692;2023-04-25T10:17:20;10.70;99.90
22734;DHT22;11534;51.994;5.692;2023-04-25T10:19:47;10.60;99.90
22734;DHT22;11534;51.994;5.692;2023-04-25T10:22:17;10.40;99.90
22734;DHT22;11534;51.994;5.692;2023-04-25T10:24:44;10.40;99.90
22734;DHT22;11534;51.994;5.692;2023-04-25T10:27:12;10.20;99.90
22734;DHT22;11534;51.994;5.692;2023-04-25T10:29:38;10.30;99.90
22734;DHT22;11534;51.994;5.692;2023-04-25T10:32:04;10.30;99.90
22734;DHT22;11534;51.994;5.692;2023-04-25T10:34:44;10.20;99.90
22734;DHT22;11534;51.994;5.692;2023-04-25T10:37:12;10.20;99.90
22734;DHT22;11534;51.994;5.692;2023-04-25T10:39:42;10.20;99.90
22734;DHT22;11534;51.994;5.692;2023-04-25T10:42:08;10.40;99.90
22734;DHT22;11534;51.994;5.692;2023-04-25T10:44:34;10.70;99.90
22734;DHT22;11534;51.994;5.692;2023-04-25T10:47:02;10.80;99.90
22734;DHT22;11534;51.994;5.692;2023-04-25T10:49:41;11.10;99.90
22734;DHT22;11534;51.994;5.692;2023-04-25T10:52:18;11.20;99.90
22734;DHT22;11534;51.994;5.692;2023-04-25T10:54:55;11.30;99.90
22734;DHT22;11534;51.994;5.692;2023-04-25T10:57:40;11.30;99.90
22734;DHT22;11534;51.994;5.692;2023-04-25T11:18:16;12.70;99.90
22734;DHT22;11534;51.994;5.692;2023-04-25T11:20:43;12.90;99.90
22734;DHT22;11534;51.994;5.692;2023-04-25T11:23:09;12.90;99.90
22734;DHT22;11534;51.994;5.692;2023-04-25T11:25:34;12.60;99.90
22734;DHT22;11534;51.994;5.692;2023-04-25T11:28:01;12.70;99.90
22734;DHT22;11534;51.994;5.692;2023-04-25T11:30:28;12.80;99.90
22734;DHT22;11534;51.994;5.692;2023-04-25T11:32:56;12.60;99.90
22734;DHT22;11534;51.994;5.692;2023-04-25T11:35:21;12.30;99.90
22734;DHT22;11534;51.994;5.692;2023-04-25T11:37:51;12.80;99.90
22734;DHT22;11534;51.994;5.692;2023-04-25T11:40:17;13.50;99.90
22734;DHT22;11534;51.994;5.692;2023-04-25T11:42:47;13.60;99.90
22734;DHT22;11534;51.994;5.692;2023-04-25T11:45:13;13.90;99.90
22734;DHT22;11534;51.994;5.692;2023-04-25T11:47:39;13.70;99.90
22734;DHT22;11534;51.994;5.692;2023-04-25T11:50:07;14.00;99.90
22734;DHT22;11534;51.994;5.692;2023-04-25T11:52:42;13.80;99.90
22734;DHT22;11534;51.994;5.692;2023-04-25T11:55:16;13.50;99.90
22734;DHT22;11534;51.994;5.692;2023-04-25T11:57:47;12.80;99.90
22734;DHT22;11534;51.994;5.692;2023-04-25T12:00:15;12.30;99.90
22734;DHT22;11534;51.994;5.692;2023-04-25T12:02:52;11.50;99.90
22734;DHT22;11534;51.994;5.692;2023-04-25T12:05:18;11.00;99.90
22734;DHT22;11534;51.994;5.692;2023-04-25T12:07:45;10.60;99.90
22734;DHT22;11534;51.994;5.692;2023-04-25T12:10:13;10.20;99.90
22734;DHT22;11534;51.994;5.692;2023-04-25T12:12:42;10.20;99.90
22734;DHT22;11534;51.994;5.692;2023-04-25T12:15:13;10.20;99.90
22734;DHT22;11534;51.994;5.692;2023-04-25T12:17:41;10.20;99.90
22734;DHT22;11534;51.994;5.692;2023-04-25T12:20:13;10.30;99.90
22734;DHT22;11534;51.994;5.692;2023-04-25T12:22:47;10.40;99.90
22734;DHT22;11534;51.994;5.692;2023-04-25T12:25:33;10.60;99.90
22734;DHT22;11534;51.994;5.692;2023-04-25T12:28:19;10.40;99.90
22734;DHT22;11534;51.994;5.692;2023-04-25T12:31:01;10.30;99.90
22734;DHT22;11534;51.994;5.692;2023-04-25T12:33:37;10.40;99.90
22734;DHT22;11534;51.994;5.692;2023-04-25T12:36:04;10.50;99.90
22734;DHT22;11534;51.994;5.692;2023-04-25T12:38:41;10.80;99.90
22734;DHT22;11534;51.994;5.692;2023-04-25T12:41:08;11.00;99.90
22734;DHT22;11534;51.994;5.692;2023-04-25T12:43:34;11.20;99.90
22734;DHT22;11534;51.994;5.692;2023-04-25T12:46:00;11.30;99.90
22734;DHT22;11534;51.994;5.692;2023-04-25T12:48:26;11.30;99.90
22734;DHT22;11534;51.994;5.692;2023-04-25T12:50:51;11.50;99.90
22734;DHT22;11534;51.994;5.692;2023-04-25T12:53:18;11.70;99.90
22734;DHT22;11534;51.994;5.692;2023-04-25T12:55:45;12.40;99.90
22734;DHT22;11534;51.994;5.692;2023-04-25T12:58:15;13.00;99.90
22734;DHT22;11534;51.994;5.692;2023-04-25T13:00:41;13.40;99.90
22734;DHT22;11534;51.994;5.692;2023-04-25T13:03:07;13.20;99.90
22734;DHT22;11534;51.994;5.692;2023-04-25T13:05:33;13.30;99.90
22734;DHT22;11534;51.994;5.692;2023-04-25T13:07:59;13.90;99.90
22734;DHT22;11534;51.994;5.692;2023-04-25T13:10:24;14.20;99.90
22734;DHT22;11534;51.994;5.692;2023-04-25T13:12:51;13.70;99.90
22734;DHT22;11534;51.994;5.692;2023-04-25T13:15:16;13.40;99.90
22734;DHT22;11534;51.994;5.692;2023-04-25T13:17:42;13.60;99.90
22734;DHT22;11534;51.994;5.692;2023-04-25T13:20:08;13.90;99.90
22734;DHT22;11534;51.994;5.692;2023-04-25T13:22:38;14.20;99.90
22734;DHT22;11534;51.994;5.692;2023-04-25T13:25:05;14.30;99.90
22734;DHT22;11534;51.994;5.692;2023-04-25T13:27:32;14.50;99.90
22734;DHT22;11534;51.994;5.692;2023-04-25T13:30:05;14.40;99.90
22734;DHT22;11534;51.994;5.692;2023-04-25T13:32:33;14.30;99.90
22734;DHT22;11534;51.994;5.692;2023-04-25T13:35:02;14.20;99.90
22734;DHT22;11534;51.994;5.692;2023-04-25T13:37:28;14.50;99.90
22734;DHT22;11534;51.994;5.692;2023-04-25T13:39:55;14.80;99.90
22734;DHT22;11534;51.994;5.692;2023-04-25T13:42:22;14.60;99.90
22734;DHT22;11534;51.994;5.692;2023-04-25T13:44:48;15.10;99.90
22734;DHT22;11534;51.994;5.692;2023-04-25T13:47:13;15.20;99.90
22734;DHT22;11534;51.994;5.692;2023-04-25T13:49:39;14.80;99.90
22734;DHT22;11534;51.994;5.692;2023-04-25T13:52:05;14.10;99.90
22734;DHT22;11534;51.994;5.692;2023-04-25T13:54:31;13.80;99.90
22734;DHT22;11534;51.994;5.692;2023-04-25T13:56:57;13.80;99.90
22734;DHT22;11534;51.994;5.692;2023-04-25T13:59:24;13.50;99.90
22734;DHT22;11534;51.994;5.692;2023-04-25T14:01:51;13.20;99.90
22734;DHT22;11534;51.994;5.692;2023-04-25T14:04:17;12.50;99.90
22734;DHT22;11534;51.994;5.692;2023-04-25T14:06:42;12.20;99.90
22734;DHT22;11534;51.994;5.692;2023-04-25T14:09:08;11.90;99.90
22734;DHT22;11534;51.994;5.692;2023-04-25T14:11:39;11.80;99.90
22734;DHT22;11534;51.994;5.692;2023-04-25T14:14:04;11.70;99.90
22734;DHT22;11534;51.994;5.692;2023-04-25T14:16:31;11.70;99.90
22734;DHT22;11534;51.994;5.692;2023-04-25T14:18:58;11.90;99.90
22734;DHT22;11534;51.994;5.692;2023-04-25T14:21:24;12.00;99.90
22734;DHT22;11534;51.994;5.692;2023-04-25T14:23:49;12.20;99.90
22734;DHT22;11534;51.994;5.692;2023-04-25T14:26:15;12.50;99.90
22734;DHT22;11534;51.994;5.692;2023-04-25T14:28:41;13.20;99.90
22734;DHT22;11534;51.994;5.692;2023-04-25T14:31:07;13.80;99.90
22734;DHT22;11534;51.994;5.692;2023-04-25T14:33:33;14.00;99.90
22734;DHT22;11534;51.994;5.692;2023-04-25T14:35:59;14.20;99.90
22734;DHT22;11534;51.994;5.692;2023-04-25T14:38:25;13.80;99.90
22734;DHT22;11534;51.994;5.692;2023-04-25T14:40:51;13.80;99.90
22734;DHT22;11534;51.994;5.692;2023-04-25T14:43:17;13.60;99.90
22734;DHT22;11534;51.994;5.692;2023-04-25T14:45:43;13.50;99.90
22734;DHT22;11534;51.994;5.692;2023-04-25T14:48:08;13.30;99.90
22734;DHT22;11534;51.994;5.692;2023-04-25T14:50:34;13.00;99.90
22734;DHT22;11534;51.994;5.692;2023-04-25T14:53:00;13.10;99.90
22734;DHT22;11534;51.994;5.692;2023-04-25T14:55:29;13.00;99.90
22734;DHT22;11534;51.994;5.692;2023-04-25T14:57:54;13.10;99.90
22734;DHT22;11534;51.994;5.692;2023-04-25T15:00:21;13.20;99.90
22734;DHT22;11534;51.994;5.692;2023-04-25T15:02:48;13.00;99.90
22734;DHT22;11534;51.994;5.692;2023-04-25T15:05:14;12.90;99.90
22734;DHT22;11534;51.994;5.692;2023-04-25T15:07:40;12.90;99.90
22734;DHT22;11534;51.994;5.692;2023-04-25T15:10:10;12.80;99.90
22734;DHT22;11534;51.994;5.692;2023-04-25T15:12:45;12.80;99.90
22734;DHT22;11534;51.994;5.692;2023-04-25T15:15:11;12.60;99.90
22734;DHT22;11534;51.994;5.692;2023-04-25T15:17:43;12.40;99.90
22734;DHT22;11534;51.994;5.692;2023-04-25T15:20:11;12.10;99.90
22734;DHT22;11534;51.994;5.692;2023-04-25T15:22:40;12.00;99.90
22734;DHT22;11534;51.994;5.692;2023-04-25T15:25:07;11.70;99.90
22734;DHT22;11534;51.994;5.692;2023-04-25T15:27:33;11.70;99.90
22734;DHT22;11534;51.994;5.692;2023-04-25T15:30:06;11.70;99.90
22734;DHT22;11534;51.994;5.692;2023-04-25T15:32:32;11.50;99.90
22734;DHT22;11534;51.994;5.692;2023-04-25T15:34:58;11.40;99.90
22734;DHT22;11534;51.994;5.692;2023-04-25T15:37:24;11.30;99.90
22734;DHT22;11534;51.994;5.692;2023-04-25T15:40:04;11.40;99.90
22734;DHT22;11534;51.994;5.692;2023-04-25T15:42:37;11.50;99.90
22734;DHT22;11534;51.994;5.692;2023-04-25T15:45:05;11.40;99.90
22734;DHT22;11534;51.994;5.692;2023-04-25T15:47:31;11.30;99.90
22734;DHT22;11534;51.994;5.692;2023-04-25T15:49:58;11.30;99.90
22734;DHT22;11534;51.994;5.692;2023-04-25T15:52:23;11.10;99.90
22734;DHT22;11534;51.994;5.692;2023-04-25T15:54:49;11.10;99.90
22734;DHT22;11534;51.994;5.692;2023-04-25T15:57:15;11.10;99.90
22734;DHT22;11534;51.994;5.692;2023-04-25T15:59:40;11.00;99.90